sensor_id;sensor_type;location;lat;lon;timestamp;temperature;humidity
24522;DHT22;12680;57.804;12.190;2023-12-20T00:02:17;5.00;99.90
24522;DHT22;12680;57.804;12.190;2023-12-20T00:04:44;5.00;99.90
24522;DHT22;12680;57.804;12.190;2023-12-20T00:07:11;5.40;99.90
24522;DHT22;12680;57.804;12.190;2023-12-20T00:09:38;5.00;99.90
24522;DHT22;12680;57.804;12.190;2023-12-20T00:12:05;5.00;99.90
24522;DHT22;12680;57.804;12.190;2023-12-20T00:14:32;5.00;99.90
24522;DHT22;12680;57.804;12.190;2023-12-20T00:16:59;5.00;99.90
24522;DHT22;12680;57.804;12.190;2023-12-20T00:19:26;5.00;99.90
24522;DHT22;12680;57.804;12.190;2023-12-20T00:21:53;5.00;99.90
24522;DHT22;12680;57.804;12.190;2023-12-20T00:24:20;5.40;99.90
24522;DHT22;12680;57.804;12.190;2023-12-20T00:26:47;4.30;99.90
24522;DHT22;12680;57.804;12.190;2023-12-20T00:29:14;5.00;99.90
24522;DHT22;12680;57.804;12.190;2023-12-20T00:31:41;5.00;99.90
24522;DHT22;12680;57.804;12.190;2023-12-20T00:34:08;5.40;99.90
24522;DHT22;12680;57.804;12.190;2023-12-20T00:36:36;5.10;99.90
24522;DHT22;12680;57.804;12.190;2023-12-20T00:39:03;5.10;99.90
24522;DHT22;12680;57.804;12.190;2023-12-20T00:41:31;6.20;99.90
24522;DHT22;12680;57.804;12.190;2023-12-20T00:43:58;5.10;99.90
24522;DHT22;12680;57.804;12.190;2023-12-20T00:46:25;5.10;99.90
24522;DHT22;12680;57.804;12.190;2023-12-20T00:48:52;5.20;99.90
24522;DHT22;12680;57.804;12.190;2023-12-20T00:51:19;5.20;99.90
24522;DHT22;12680;57.804;12.190;2023-12-20T00:53:46;5.20;99.90
24522;DHT22;12680;57.804;12.190;2023-12-20T00:56:16;5.20;99.90
24522;DHT22;12680;57.804;12.190;2023-12-20T00:58:43;5.20;99.90
24522;DHT22;12680;57.804;12.190;2023-12-20T01:01:10;5.20;99.90
24522;DHT22;12680;57.804;12.190;2023-12-20T01:03:37;5.20;99.90
24522;DHT22;12680;57.804;12.190;2023-12-20T01:06:04;5.20;99.90
24522;DHT22;12680;57.804;12.190;2023-12-20T01:08:32;5.20;99.90
24522;DHT22;12680;57.804;12.190;2023-12-20T01:10:59;5.20;99.90
24522;DHT22;12680;57.804;12.190;2023-12-20T01:13:26;5.20;99.90
24522;DHT22;12680;57.804;12.190;2023-12-20T01:15:52;5.20;99.90
24522;DHT22;12680;57.804;12.190;2023-12-20T01:18:19;5.20;99.90
24522;DHT22;12680;57.804;12.190;2023-12-20T01:20:46;5.20;99.90
24522;DHT22;12680;57.804;12.190;2023-12-20T01:23:13;5.20;99.90
24522;DHT22;12680;57.804;12.190;2023-12-20T01:25:40;6.10;99.90
24522;DHT22;12680;57.804;12.190;2023-12-20T01:28:07;5.20;99.90
24522;DHT22;12680;57.804;12.190;2023-12-20T01:30:35;5.20;99.90
24522;DHT22;12680;57.804;12.190;2023-12-20T01:33:02;5.20;99.90
24522;DHT22;12680;57.804;12.190;2023-12-20T01:35:29;5.20;99.90
24522;DHT22;12680;57.804;12.190;2023-12-20T01:37:57;5.20;99.90
24522;DHT22;12680;57.804;12.190;2023-12-20T01:40:23;5.10;99.90
24522;DHT22;12680;57.804;12.190;2023-12-20T01:42:59;5.10;99.90
24522;DHT22;12680;57.804;12.190;2023-12-20T01:45:26;5.00;99.90
24522;DHT22;12680;57.804;12.190;2023-12-20T01:47:57;5.00;99.90
24522;DHT22;12680;57.804;12.190;2023-12-20T01:50:24;5.00;99.90
24522;DHT22;12680;57.804;12.190;2023-12-20T01:52:52;4.90;99.90
24522;DHT22;12680;57.804;12.190;2023-12-20T01:55:22;4.90;99.90
24522;DHT22;12680;57.804;12.190;2023-12-20T01:57:50;6.80;99.90
24522;DHT22;12680;57.804;12.190;2023-12-20T02:00:18;4.80;99.90
24522;DHT22;12680;57.804;12.190;2023-12-20T02:02:45;4.80;99.90
24522;DHT22;12680;57.804;12.190;2023-12-20T02:05:12;4.80;99.90
24522;DHT22;12680;57.804;12.190;2023-12-20T02:07:40;4.80;99.90
24522;DHT22;12680;57.804;12.190;2023-12-20T02:10:07;6.60;99.90
24522;DHT22;12680;57.804;12.190;2023-12-20T02:12:34;4.90;99.90
24522;DHT22;12680;57.804;12.190;2023-12-20T02:15:02;4.90;99.90
24522;DHT22;12680;57.804;12.190;2023-12-20T02:17:30;4.90;99.90
24522;DHT22;12680;57.804;12.190;2023-12-20T02:19:58;4.90;99.90
24522;DHT22;12680;57.804;12.190;2023-12-20T02:22:25;5.00;99.90
24522;DHT22;12680;57.804;12.190;2023-12-20T02:24:52;5.00;99.90
24522;DHT22;12680;57.804;12.190;2023-12-20T02:27:19;5.00;99.90
24522;DHT22;12680;57.804;12.190;2023-12-20T02:29:47;5.00;99.90
24522;DHT22;12680;57.804;12.190;2023-12-20T02:32:16;5.00;99.90
24522;DHT22;12680;57.804;12.190;2023-12-20T02:34:44;5.00;99.90
24522;DHT22;12680;57.804;12.190;2023-12-20T02:37:11;5.10;99.90
24522;DHT22;12680;57.804;12.190;2023-12-20T02:39:38;5.10;99.90
24522;DHT22;12680;57.804;12.190;2023-12-20T02:42:05;5.10;99.90
24522;DHT22;12680;57.804;12.190;2023-12-20T02:44:32;5.10;99.90
24522;DHT22;12680;57.804;12.190;2023-12-20T02:46:59;5.10;99.90
24522;DHT22;12680;57.804;12.190;2023-12-20T02:49:26;5.10;99.90
24522;DHT22;12680;57.804;12.190;2023-12-20T02:51:53;5.10;99.90
24522;DHT22;12680;57.804;12.190;2023-12-20T02:54:20;5.10;99.90
24522;DHT22;12680;57.804;12.190;2023-12-20T02:56:47;6.10;99.90
24522;DHT22;12680;57.804;12.190;2023-12-20T02:59:14;5.10;99.90
24522;DHT22;12680;57.804;12.190;2023-12-20T03:01:43;5.10;99.90
24522;DHT22;12680;57.804;12.190;2023-12-20T03:04:10;5.10;99.90
24522;DHT22;12680;57.804;12.190;2023-12-20T03:06:38;5.10;99.90
24522;DHT22;12680;57.804;12.190;2023-12-20T03:09:05;5.10;99.90
24522;DHT22;12680;57.804;12.190;2023-12-20T03:11:32;5.10;99.90
24522;DHT22;12680;57.804;12.190;2023-12-20T03:13:59;5.20;99.90
24522;DHT22;12680;57.804;12.190;2023-12-20T03:16:26;5.20;99.90
24522;DHT22;12680;57.804;12.190;2023-12-20T03:18:53;5.20;99.90
24522;DHT22;12680;57.804;12.190;2023-12-20T03:21:20;5.20;99.90
24522;DHT22;12680;57.804;12.190;2023-12-20T03:23:47;5.20;99.90
24522;DHT22;12680;57.804;12.190;2023-12-20T03:26:14;6.40;99.90
24522;DHT22;12680;57.804;12.190;2023-12-20T03:28:41;5.20;99.90
24522;DHT22;12680;57.804;12.190;2023-12-20T03:31:09;5.20;99.90
24522;DHT22;12680;57.804;12.190;2023-12-20T03:33:36;5.10;99.90
24522;DHT22;12680;57.804;12.190;2023-12-20T03:36:04;5.20;99.90
24522;DHT22;12680;57.804;12.190;2023-12-20T03:38:31;5.20;99.90
24522;DHT22;12680;57.804;12.190;2023-12-20T03:40:58;5.20;99.90
24522;DHT22;12680;57.804;12.190;2023-12-20T03:43:25;5.20;99.90
24522;DHT22;12680;57.804;12.190;2023-12-20T03:45:52;5.30;99.90
24522;DHT22;12680;57.804;12.190;2023-12-20T03:48:19;6.50;99.90
24522;DHT22;12680;57.804;12.190;2023-12-20T03:50:45;5.20;99.90
24522;DHT22;12680;57.804;12.190;2023-12-20T03:53:12;5.10;99.90
24522;DHT22;12680;57.804;12.190;2023-12-20T03:55:39;5.10;99.90
24522;DHT22;12680;57.804;12.190;2023-12-20T03:58:06;5.00;99.90
24522;DHT22;12680;57.804;12.190;2023-12-20T04:00:33;5.00;99.90
24522;DHT22;12680;57.804;12.190;2023-12-20T04:03:00;5.00;99.90
24522;DHT22;12680;57.804;12.190;2023-12-20T04:05:27;5.00;99.90
24522;DHT22;12680;57.804;12.190;2023-12-20T04:07:54;4.90;99.90
24522;DHT22;12680;57.804;12.190;2023-12-20T04:10:21;4.90;99.90
24522;DHT22;12680;57.804;12.190;2023-12-20T04:12:48;4.90;99.90
24522;DHT22;12680;57.804;12.190;2023-12-20T04:15:15;4.90;99.90
24522;DHT22;12680;57.804;12.190;2023-12-20T04:17:42;4.80;99.90
24522;DHT22;12680;57.804;12.190;2023-12-20T04:20:09;4.80;99.90
24522;DHT22;12680;57.804;12.190;2023-12-20T04:22:37;4.80;99.90
24522;DHT22;12680;57.804;12.190;2023-12-20T04:25:04;4.80;99.90
24522;DHT22;12680;57.804;12.190;2023-12-20T04:27:31;4.80;99.90
24522;DHT22;12680;57.804;12.190;2023-12-20T04:29:58;4.80;99.90
24522;DHT22;12680;57.804;12.190;2023-12-20T04:32:25;4.80;99.90
24522;DHT22;12680;57.804;12.190;2023-12-20T04:34:52;4.80;99.90
24522;DHT22;12680;57.804;12.190;2023-12-20T04:37:19;4.90;99.90
24522;DHT22;12680;57.804;12.190;2023-12-20T04:39:47;4.80;99.90
24522;DHT22;12680;57.804;12.190;2023-12-20T04:42:14;4.80;99.90
24522;DHT22;12680;57.804;12.190;2023-12-20T04:44:41;4.90;99.90
24522;DHT22;12680;57.804;12.190;2023-12-20T04:47:10;4.80;99.90
24522;DHT22;12680;57.804;12.190;2023-12-20T04:49:37;4.80;99.90
24522;DHT22;12680;57.804;12.190;2023-12-20T04:52:04;4.80;99.90
24522;DHT22;12680;57.804;12.190;2023-12-20T04:54:32;4.80;99.90
24522;DHT22;12680;57.804;12.190;2023-12-20T04:56:59;4.80;99.90
24522;DHT22;12680;57.804;12.190;2023-12-20T04:59:26;4.80;99.90
24522;DHT22;12680;57.804;12.190;2023-12-20T05:01:53;4.80;99.90
24522;DHT22;12680;57.804;12.190;2023-12-20T05:04:20;4.80;99.90
24522;DHT22;12680;57.804;12.190;2023-12-20T05:06:47;6.60;99.90
24522;DHT22;12680;57.804;12.190;2023-12-20T05:09:16;4.80;99.90
24522;DHT22;12680;57.804;12.190;2023-12-20T05:11:44;4.80;99.90
24522;DHT22;12680;57.804;12.190;2023-12-20T05:14:11;4.80;99.90
24522;DHT22;12680;57.804;12.190;2023-12-20T05:16:38;4.80;99.90
24522;DHT22;12680;57.804;12.190;2023-12-20T05:19:05;4.90;99.90
24522;DHT22;12680;57.804;12.190;2023-12-20T05:21:33;4.90;99.90
24522;DHT22;12680;57.804;12.190;2023-12-20T05:24:00;5.10;99.90
24522;DHT22;12680;57.804;12.190;2023-12-20T05:26:27;4.80;99.90
24522;DHT22;12680;57.804;12.190;2023-12-20T05:28:56;4.90;99.90
24522;DHT22;12680;57.804;12.190;2023-12-20T05:31:23;6.50;99.90
24522;DHT22;12680;57.804;12.190;2023-12-20T05:33:50;4.90;99.90
24522;DHT22;12680;57.804;12.190;2023-12-20T05:36:18;4.90;99.90
24522;DHT22;12680;57.804;12.190;2023-12-20T05:38:45;4.90;99.90
24522;DHT22;12680;57.804;12.190;2023-12-20T05:41:12;4.90;99.90
24522;DHT22;12680;57.804;12.190;2023-12-20T05:43:40;4.90;99.90
24522;DHT22;12680;57.804;12.190;2023-12-20T05:46:06;5.00;99.90
24522;DHT22;12680;57.804;12.190;2023-12-20T05:48:33;5.00;99.90
24522;DHT22;12680;57.804;12.190;2023-12-20T05:51:00;5.00;99.90
24522;DHT22;12680;57.804;12.190;2023-12-20T05:53:27;5.00;99.90
24522;DHT22;12680;57.804;12.190;2023-12-20T05:55:54;5.10;99.90
24522;DHT22;12680;57.804;12.190;2023-12-20T05:58:21;5.10;99.90
24522;DHT22;12680;57.804;12.190;2023-12-20T06:00:48;5.40;99.90
24522;DHT22;12680;57.804;12.190;2023-12-20T06:03:16;5.10;99.90
24522;DHT22;12680;57.804;12.190;2023-12-20T06:05:42;5.00;99.90
24522;DHT22;12680;57.804;12.190;2023-12-20T06:08:10;5.10;99.90
24522;DHT22;12680;57.804;12.190;2023-12-20T06:10:36;8.20;99.90
24522;DHT22;12680;57.804;12.190;2023-12-20T06:13:03;5.10;99.90
24522;DHT22;12680;57.804;12.190;2023-12-20T06:15:31;5.10;99.90
24522;DHT22;12680;57.804;12.190;2023-12-20T06:17:58;5.10;99.90
24522;DHT22;12680;57.804;12.190;2023-12-20T06:20:25;5.10;99.90
24522;DHT22;12680;57.804;12.190;2023-12-20T06:22:51;5.00;99.90
24522;DHT22;12680;57.804;12.190;2023-12-20T06:25:18;5.00;99.90
24522;DHT22;12680;57.804;12.190;2023-12-20T06:27:45;4.90;99.90
24522;DHT22;12680;57.804;12.190;2023-12-20T06:30:12;5.00;99.90
24522;DHT22;12680;57.804;12.190;2023-12-20T06:32:39;5.00;99.90
24522;DHT22;12680;57.804;12.190;2023-12-20T06:35:06;4.90;99.90
24522;DHT22;12680;57.804;12.190;2023-12-20T06:37:33;4.90;99.90
24522;DHT22;12680;57.804;12.190;2023-12-20T06:40:00;4.80;99.90
24522;DHT22;12680;57.804;12.190;2023-12-20T06:42:27;4.80;99.90
24522;DHT22;12680;57.804;12.190;2023-12-20T06:44:57;4.70;99.90
24522;DHT22;12680;57.804;12.190;2023-12-20T06:47:23;4.70;99.90
24522;DHT22;12680;57.804;12.190;2023-12-20T06:49:50;4.60;99.90
24522;DHT22;12680;57.804;12.190;2023-12-20T06:52:17;4.60;99.90
24522;DHT22;12680;57.804;12.190;2023-12-20T06:54:44;4.60;99.90
24522;DHT22;12680;57.804;12.190;2023-12-20T06:57:11;4.70;99.90
24522;DHT22;12680;57.804;12.190;2023-12-20T06:59:39;4.70;99.90
24522;DHT22;12680;57.804;12.190;2023-12-20T07:02:06;4.70;99.90
24522;DHT22;12680;57.804;12.190;2023-12-20T07:04:41;4.80;99.90
24522;DHT22;12680;57.804;12.190;2023-12-20T07:07:07;4.80;99.90
24522;DHT22;12680;57.804;12.190;2023-12-20T07:09:35;4.80;99.90
24522;DHT22;12680;57.804;12.190;2023-12-20T07:12:02;4.80;99.90
24522;DHT22;12680;57.804;12.190;2023-12-20T07:14:28;4.80;99.90
24522;DHT22;12680;57.804;12.190;2023-12-20T07:16:55;4.80;99.90
24522;DHT22;12680;57.804;12.190;2023-12-20T07:19:22;4.80;99.90
24522;DHT22;12680;57.804;12.190;2023-12-20T07:21:49;4.80;99.90
24522;DHT22;12680;57.804;12.190;2023-12-20T07:24:16;8.00;99.90
24522;DHT22;12680;57.804;12.190;2023-12-20T07:26:42;4.80;99.90
24522;DHT22;12680;57.804;12.190;2023-12-20T07:29:09;4.80;99.90
24522;DHT22;12680;57.804;12.190;2023-12-20T07:31:36;4.80;99.90
24522;DHT22;12680;57.804;12.190;2023-12-20T07:34:03;4.80;99.90
24522;DHT22;12680;57.804;12.190;2023-12-20T07:36:30;4.80;99.90
24522;DHT22;12680;57.804;12.190;2023-12-20T07:38:56;4.80;99.90
24522;DHT22;12680;57.804;12.190;2023-12-20T07:41:23;4.70;99.90
24522;DHT22;12680;57.804;12.190;2023-12-20T07:43:50;4.70;99.90
24522;DHT22;12680;57.804;12.190;2023-12-20T07:46:17;4.70;99.90
24522;DHT22;12680;57.804;12.190;2023-12-20T07:48:45;4.60;99.90
24522;DHT22;12680;57.804;12.190;2023-12-20T07:51:13;4.60;99.90
24522;DHT22;12680;57.804;12.190;2023-12-20T07:53:40;4.50;99.90
24522;DHT22;12680;57.804;12.190;2023-12-20T07:56:17;4.50;99.90
24522;DHT22;12680;57.804;12.190;2023-12-20T07:58:44;4.50;99.90
24522;DHT22;12680;57.804;12.190;2023-12-20T08:01:19;4.40;99.90
24522;DHT22;12680;57.804;12.190;2023-12-20T08:03:48;4.50;99.90
24522;DHT22;12680;57.804;12.190;2023-12-20T08:06:15;4.50;99.90
24522;DHT22;12680;57.804;12.190;2023-12-20T08:08:43;4.40;99.90
24522;DHT22;12680;57.804;12.190;2023-12-20T08:11:11;4.40;99.90
24522;DHT22;12680;57.804;12.190;2023-12-20T08:13:37;4.40;99.90
24522;DHT22;12680;57.804;12.190;2023-12-20T08:16:04;4.30;99.90
24522;DHT22;12680;57.804;12.190;2023-12-20T08:18:32;4.30;99.90
24522;DHT22;12680;57.804;12.190;2023-12-20T08:20:59;4.30;99.90
24522;DHT22;12680;57.804;12.190;2023-12-20T08:23:27;5.80;99.90
24522;DHT22;12680;57.804;12.190;2023-12-20T08:25:56;4.40;99.90
24522;DHT22;12680;57.804;12.190;2023-12-20T08:28:22;4.50;99.90
24522;DHT22;12680;57.804;12.190;2023-12-20T08:30:49;4.50;99.90
24522;DHT22;12680;57.804;12.190;2023-12-20T08:33:20;4.50;99.90
24522;DHT22;12680;57.804;12.190;2023-12-20T08:35:47;4.50;99.90
24522;DHT22;12680;57.804;12.190;2023-12-20T08:38:14;4.50;99.90
24522;DHT22;12680;57.804;12.190;2023-12-20T08:40:41;4.50;99.90
24522;DHT22;12680;57.804;12.190;2023-12-20T08:43:08;4.50;99.90
24522;DHT22;12680;57.804;12.190;2023-12-20T08:45:35;4.50;99.90
24522;DHT22;12680;57.804;12.190;2023-12-20T08:48:02;4.60;99.90
24522;DHT22;12680;57.804;12.190;2023-12-20T08:50:33;4.60;99.90
24522;DHT22;12680;57.804;12.190;2023-12-20T08:53:00;4.60;99.90
24522;DHT22;12680;57.804;12.190;2023-12-20T08:55:27;4.60;99.90
24522;DHT22;12680;57.804;12.190;2023-12-20T08:57:55;4.60;99.90
24522;DHT22;12680;57.804;12.190;2023-12-20T09:00:22;4.60;99.90
24522;DHT22;12680;57.804;12.190;2023-12-20T09:02:52;4.60;99.90
24522;DHT22;12680;57.804;12.190;2023-12-20T09:05:19;4.50;99.90
24522;DHT22;12680;57.804;12.190;2023-12-20T09:07:46;4.50;99.90
24522;DHT22;12680;57.804;12.190;2023-12-20T09:10:13;4.60;99.90
24522;DHT22;12680;57.804;12.190;2023-12-20T09:12:42;4.60;99.90
24522;DHT22;12680;57.804;12.190;2023-12-20T09:15:09;4.60;99.90
24522;DHT22;12680;57.804;12.190;2023-12-20T09:17:36;4.60;99.90
24522;DHT22;12680;57.804;12.190;2023-12-20T09:20:03;4.70;99.90
24522;DHT22;12680;57.804;12.190;2023-12-20T09:22:32;4.70;99.90
24522;DHT22;12680;57.804;12.190;2023-12-20T09:25:00;4.60;99.90
24522;DHT22;12680;57.804;12.190;2023-12-20T09:27:28;4.70;99.90
24522;DHT22;12680;57.804;12.190;2023-12-20T09:29:55;4.70;99.90
24522;DHT22;12680;57.804;12.190;2023-12-20T09:32:22;4.80;99.90
24522;DHT22;12680;57.804;12.190;2023-12-20T09:34:48;4.80;99.90
24522;DHT22;12680;57.804;12.190;2023-12-20T09:37:16;4.80;99.90
24522;DHT22;12680;57.804;12.190;2023-12-20T09:39:42;4.80;99.90
24522;DHT22;12680;57.804;12.190;2023-12-20T09:42:11;4.90;99.90
24522;DHT22;12680;57.804;12.190;2023-12-20T09:44:39;4.90;99.90
24522;DHT22;12680;57.804;12.190;2023-12-20T09:47:08;5.00;99.90
24522;DHT22;12680;57.804;12.190;2023-12-20T09:49:36;5.00;99.90
24522;DHT22;12680;57.804;12.190;2023-12-20T09:52:05;5.00;99.90
24522;DHT22;12680;57.804;12.190;2023-12-20T09:54:34;4.90;99.90
24522;DHT22;12680;57.804;12.190;2023-12-20T09:57:01;4.90;99.90
24522;DHT22;12680;57.804;12.190;2023-12-20T09:59:27;4.90;99.90
24522;DHT22;12680;57.804;12.190;2023-12-20T10:01:55;4.90;99.90
24522;DHT22;12680;57.804;12.190;2023-12-20T10:04:24;4.90;99.90
24522;DHT22;12680;57.804;12.190;2023-12-20T10:06:56;4.90;99.90
24522;DHT22;12680;57.804;12.190;2023-12-20T10:09:24;5.00;99.90
24522;DHT22;12680;57.804;12.190;2023-12-20T10:11:54;5.10;99.90
24522;DHT22;12680;57.804;12.190;2023-12-20T10:14:21;5.10;99.90
24522;DHT22;12680;57.804;12.190;2023-12-20T10:16:50;5.10;99.90
24522;DHT22;12680;57.804;12.190;2023-12-20T10:19:17;5.20;99.90
24522;DHT22;12680;57.804;12.190;2023-12-20T10:21:45;5.20;99.90
24522;DHT22;12680;57.804;12.190;2023-12-20T10:24:17;5.20;99.90
24522;DHT22;12680;57.804;12.190;2023-12-20T10:26:44;5.20;99.90
24522;DHT22;12680;57.804;12.190;2023-12-20T10:29:11;5.20;99.90
24522;DHT22;12680;57.804;12.190;2023-12-20T10:31:38;5.30;99.90
24522;DHT22;12680;57.804;12.190;2023-12-20T10:34:09;5.20;99.90
24522;DHT22;12680;57.804;12.190;2023-12-20T10:36:36;5.30;99.90
24522;DHT22;12680;57.804;12.190;2023-12-20T10:39:05;6.10;99.90
24522;DHT22;12680;57.804;12.190;2023-12-20T10:41:35;5.30;99.90
24522;DHT22;12680;57.804;12.190;2023-12-20T10:44:08;5.40;99.90
24522;DHT22;12680;57.804;12.190;2023-12-20T10:46:37;6.20;99.90
24522;DHT22;12680;57.804;12.190;2023-12-20T10:49:05;5.30;99.90
24522;DHT22;12680;57.804;12.190;2023-12-20T10:51:34;5.40;99.90
24522;DHT22;12680;57.804;12.190;2023-12-20T10:54:01;5.40;99.90
24522;DHT22;12680;57.804;12.190;2023-12-20T10:56:32;5.40;99.90
24522;DHT22;12680;57.804;12.190;2023-12-20T10:59:04;4.70;99.90
24522;DHT22;12680;57.804;12.190;2023-12-20T11:01:32;5.50;99.90
24522;DHT22;12680;57.804;12.190;2023-12-20T11:04:00;5.40;99.90
24522;DHT22;12680;57.804;12.190;2023-12-20T11:06:54;5.50;99.90
24522;DHT22;12680;57.804;12.190;2023-12-20T11:09:25;5.40;99.90
24522;DHT22;12680;57.804;12.190;2023-12-20T11:14:51;5.50;99.90
24522;DHT22;12680;57.804;12.190;2023-12-20T11:17:18;5.50;99.90
24522;DHT22;12680;57.804;12.190;2023-12-20T11:22:26;5.50;99.90
24522;DHT22;12680;57.804;12.190;2023-12-20T11:25:05;5.50;99.90
24522;DHT22;12680;57.804;12.190;2023-12-20T11:27:41;5.50;99.90
24522;DHT22;12680;57.804;12.190;2023-12-20T11:30:10;5.50;99.90
24522;DHT22;12680;57.804;12.190;2023-12-20T11:32:37;5.40;99.90
24522;DHT22;12680;57.804;12.190;2023-12-20T11:37:38;8.00;99.90
24522;DHT22;12680;57.804;12.190;2023-12-20T11:40:18;5.30;99.90
24522;DHT22;12680;57.804;12.190;2023-12-20T11:42:48;5.30;99.90
24522;DHT22;12680;57.804;12.190;2023-12-20T11:45:18;5.30;99.90
24522;DHT22;12680;57.804;12.190;2023-12-20T11:47:50;5.20;99.90
24522;DHT22;12680;57.804;12.190;2023-12-20T11:50:18;5.20;99.90
24522;DHT22;12680;57.804;12.190;2023-12-20T11:52:46;5.30;99.90
24522;DHT22;12680;57.804;12.190;2023-12-20T11:55:13;5.30;99.90
24522;DHT22;12680;57.804;12.190;2023-12-20T11:57:40;5.30;99.90
24522;DHT22;12680;57.804;12.190;2023-12-20T12:00:07;5.30;99.90
24522;DHT22;12680;57.804;12.190;2023-12-20T12:02:34;5.30;99.90
24522;DHT22;12680;57.804;12.190;2023-12-20T12:05:01;5.30;99.90
24522;DHT22;12680;57.804;12.190;2023-12-20T12:07:29;5.20;99.90
24522;DHT22;12680;57.804;12.190;2023-12-20T12:09:55;7.60;99.90
24522;DHT22;12680;57.804;12.190;2023-12-20T12:12:22;5.10;99.90
24522;DHT22;12680;57.804;12.190;2023-12-20T12:14:49;5.10;99.90
24522;DHT22;12680;57.804;12.190;2023-12-20T12:17:16;5.10;99.90
24522;DHT22;12680;57.804;12.190;2023-12-20T12:19:43;5.10;99.90
24522;DHT22;12680;57.804;12.190;2023-12-20T12:22:13;5.10;99.90
24522;DHT22;12680;57.804;12.190;2023-12-20T12:24:46;5.10;99.90
24522;DHT22;12680;57.804;12.190;2023-12-20T12:27:13;5.00;99.90
24522;DHT22;12680;57.804;12.190;2023-12-20T12:29:41;5.10;99.90
24522;DHT22;12680;57.804;12.190;2023-12-20T12:32:09;5.00;99.90
24522;DHT22;12680;57.804;12.190;2023-12-20T12:34:36;5.00;99.90
24522;DHT22;12680;57.804;12.190;2023-12-20T12:37:03;5.00;99.90
24522;DHT22;12680;57.804;12.190;2023-12-20T12:39:30;4.90;99.90
24522;DHT22;12680;57.804;12.190;2023-12-20T12:41:57;4.90;99.90
24522;DHT22;12680;57.804;12.190;2023-12-20T12:44:24;4.90;99.90
24522;DHT22;12680;57.804;12.190;2023-12-20T12:46:52;4.80;99.90
24522;DHT22;12680;57.804;12.190;2023-12-20T12:49:20;4.80;99.90
24522;DHT22;12680;57.804;12.190;2023-12-20T12:51:51;4.80;99.90
24522;DHT22;12680;57.804;12.190;2023-12-20T12:54:18;4.80;99.90
24522;DHT22;12680;57.804;12.190;2023-12-20T12:56:45;6.50;99.90
24522;DHT22;12680;57.804;12.190;2023-12-20T12:59:14;7.60;99.90
24522;DHT22;12680;57.804;12.190;2023-12-20T13:01:41;4.80;99.90
24522;DHT22;12680;57.804;12.190;2023-12-20T13:04:08;4.80;99.90
24522;DHT22;12680;57.804;12.190;2023-12-20T13:06:38;6.40;99.90
24522;DHT22;12680;57.804;12.190;2023-12-20T13:09:05;4.70;99.90
24522;DHT22;12680;57.804;12.190;2023-12-20T13:11:33;4.70;99.90
24522;DHT22;12680;57.804;12.190;2023-12-20T13:14:01;4.60;99.90
24522;DHT22;12680;57.804;12.190;2023-12-20T13:16:28;6.40;99.90
24522;DHT22;12680;57.804;12.190;2023-12-20T13:18:55;4.60;99.90
24522;DHT22;12680;57.804;12.190;2023-12-20T13:21:22;5.10;99.90
24522;DHT22;12680;57.804;12.190;2023-12-20T13:23:49;4.50;99.90
24522;DHT22;12680;57.804;12.190;2023-12-20T13:26:16;4.50;99.90
24522;DHT22;12680;57.804;12.190;2023-12-20T13:28:44;4.40;99.90
24522;DHT22;12680;57.804;12.190;2023-12-20T13:31:10;4.40;99.90
24522;DHT22;12680;57.804;12.190;2023-12-20T13:33:37;4.40;99.90
24522;DHT22;12680;57.804;12.190;2023-12-20T13:36:06;4.40;99.90
24522;DHT22;12680;57.804;12.190;2023-12-20T13:38:34;4.40;99.90
24522;DHT22;12680;57.804;12.190;2023-12-20T13:41:00;4.30;99.90
24522;DHT22;12680;57.804;12.190;2023-12-20T13:43:27;4.30;99.90
24522;DHT22;12680;57.804;12.190;2023-12-20T13:45:54;4.30;99.90
24522;DHT22;12680;57.804;12.190;2023-12-20T13:48:22;4.20;99.90
24522;DHT22;12680;57.804;12.190;2023-12-20T13:50:49;4.20;99.90
24522;DHT22;12680;57.804;12.190;2023-12-20T13:53:16;4.20;99.90
24522;DHT22;12680;57.804;12.190;2023-12-20T13:55:43;4.20;99.90
24522;DHT22;12680;57.804;12.190;2023-12-20T13:58:10;4.10;99.90
24522;DHT22;12680;57.804;12.190;2023-12-20T14:00:37;4.10;99.90
24522;DHT22;12680;57.804;12.190;2023-12-20T14:03:04;4.10;99.90
24522;DHT22;12680;57.804;12.190;2023-12-20T14:05:31;4.10;99.90
24522;DHT22;12680;57.804;12.190;2023-12-20T14:07:58;4.00;99.90
24522;DHT22;12680;57.804;12.190;2023-12-20T14:10:26;4.00;99.90
24522;DHT22;12680;57.804;12.190;2023-12-20T14:12:56;3.90;99.90
24522;DHT22;12680;57.804;12.190;2023-12-20T14:15:23;4.00;99.90
24522;DHT22;12680;57.804;12.190;2023-12-20T14:17:52;3.90;99.90
24522;DHT22;12680;57.804;12.190;2023-12-20T14:20:19;3.80;99.90
24522;DHT22;12680;57.804;12.190;2023-12-20T14:22:46;3.80;99.90
24522;DHT22;12680;57.804;12.190;2023-12-20T14:25:14;3.70;99.90
24522;DHT22;12680;57.804;12.190;2023-12-20T14:27:42;3.70;99.90
24522;DHT22;12680;57.804;12.190;2023-12-20T14:30:12;3.60;99.90
24522;DHT22;12680;57.804;12.190;2023-12-20T14:32:41;3.60;99.90
24522;DHT22;12680;57.804;12.190;2023-12-20T14:35:08;3.60;99.90
24522;DHT22;12680;57.804;12.190;2023-12-20T14:37:36;3.50;99.90
24522;DHT22;12680;57.804;12.190;2023-12-20T14:40:10;3.20;99.90
24522;DHT22;12680;57.804;12.190;2023-12-20T14:42:38;3.40;99.90
24522;DHT22;12680;57.804;12.190;2023-12-20T14:45:05;3.10;99.90
24522;DHT22;12680;57.804;12.190;2023-12-20T14:47:32;3.40;99.90
24522;DHT22;12680;57.804;12.190;2023-12-20T14:49:59;3.40;99.90
24522;DHT22;12680;57.804;12.190;2023-12-20T14:52:26;3.30;99.90
24522;DHT22;12680;57.804;12.190;2023-12-20T14:54:53;3.30;99.90
24522;DHT22;12680;57.804;12.190;2023-12-20T14:57:20;3.20;99.90
24522;DHT22;12680;57.804;12.190;2023-12-20T14:59:46;3.20;99.90
24522;DHT22;12680;57.804;12.190;2023-12-20T15:02:13;3.20;99.90
24522;DHT22;12680;57.804;12.190;2023-12-20T15:04:42;3.20;99.90
24522;DHT22;12680;57.804;12.190;2023-12-20T15:07:08;3.10;99.90
24522;DHT22;12680;57.804;12.190;2023-12-20T15:09:35;3.10;99.90
24522;DHT22;12680;57.804;12.190;2023-12-20T15:12:02;3.10;99.90
24522;DHT22;12680;57.804;12.190;2023-12-20T15:14:29;3.10;99.90
24522;DHT22;12680;57.804;12.190;2023-12-20T15:16:56;3.10;99.90
24522;DHT22;12680;57.804;12.190;2023-12-20T15:19:23;3.00;99.90
24522;DHT22;12680;57.804;12.190;2023-12-20T15:21:50;3.00;99.90
24522;DHT22;12680;57.804;12.190;2023-12-20T15:24:17;3.00;99.90
24522;DHT22;12680;57.804;12.190;2023-12-20T15:26:46;3.00;99.90
24522;DHT22;12680;57.804;12.190;2023-12-20T15:29:13;3.00;99.90
24522;DHT22;12680;57.804;12.190;2023-12-20T15:31:42;3.00;99.90
24522;DHT22;12680;57.804;12.190;2023-12-20T15:34:09;3.00;99.90
24522;DHT22;12680;57.804;12.190;2023-12-20T15:36:37;3.00;99.90
24522;DHT22;12680;57.804;12.190;2023-12-20T15:39:06;3.00;99.90
24522;DHT22;12680;57.804;12.190;2023-12-20T15:41:35;3.00;99.90